createdAt,value
2019-04-04T00:03:30.249Z,7.30
2019-04-04T00:08:32.331Z,7.75
2019-04-04T00:13:34.438Z,7.03
2019-04-04T00:18:36.482Z,8.65
2019-04-04T00:23:38.690Z,8.63
2019-04-04T00:28:40.753Z,8.58
2019-04-04T00:33:42.833Z,8.03
2019-04-04T00:38:44.982Z,10.08
2019-04-04T00:43:47.090Z,10.15
2019-04-04T00:48:49.437Z,11.22
2019-04-04T00:53:51.586Z,12.47
2019-04-04T00:58:53.689Z,12.03
2019-04-04T01:03:55.796Z,12.47
2019-04-04T01:08:57.851Z,12.53
2019-04-04T01:13:59.927Z,11.68
2019-04-04T01:19:01.984Z,12.82
2019-04-04T01:24:04.170Z,12.55
2019-04-04T01:29:06.320Z,12.90
2019-04-04T01:34:08.351Z,12.35
2019-04-04T01:39:10.431Z,12.70
2019-04-04T01:44:12.499Z,12.30
2019-04-04T01:49:14.612Z,12.95
2019-04-04T01:54:16.738Z,13.10
2019-04-04T01:59:18.811Z,12.65
2019-04-04T02:04:20.885Z,12.35
2019-04-04T02:09:22.879Z,13.03
2019-04-04T02:14:24.930Z,12.35
2019-04-04T02:19:27.035Z,13.32
2019-04-04T02:24:29.758Z,12.93
2019-04-04T02:29:32.948Z,12.88
2019-04-04T02:34:37.705Z,14.13
2019-04-04T02:39:39.359Z,14.75
2019-04-04T02:44:41.462Z,14.83
2019-04-04T02:49:43.577Z,14.45
2019-04-04T02:54:45.619Z,15.10
2019-04-04T02:59:47.773Z,14.93
2019-04-04T03:04:49.848Z,14.00
2019-04-04T03:09:52.006Z,14.75
2019-04-04T03:14:54.056Z,16.10
2019-04-04T03:19:56.132Z,14.70
2019-04-04T03:24:58.153Z,16.12
2019-04-04T03:30:00.213Z,14.70
2019-04-04T03:35:02.336Z,16.05
2019-04-04T03:40:04.525Z,15.95
2019-04-04T03:45:06.699Z,15.93
2019-04-04T03:50:08.964Z,15.80
2019-04-04T03:55:10.985Z,15.70
2019-04-04T04:00:26.400Z,15.65
2019-04-04T04:05:33.969Z,15.18
2019-04-04T04:10:34.011Z,15.90
2019-04-04T04:15:36.153Z,16.65
2019-04-04T04:20:38.300Z,17.98
2019-04-04T04:25:43.333Z,18.20
2019-04-04T04:30:45.395Z,17.07
2019-04-04T04:35:47.499Z,17.57
2019-04-04T04:40:49.544Z,17.67
2019-04-04T04:45:51.657Z,17.92
2019-04-04T04:50:53.750Z,17.95
2019-04-04T04:55:59.490Z,19.85
2019-04-04T05:00:59.807Z,17.67
2019-04-04T05:06:02.627Z,19.70
2019-04-04T05:11:05.438Z,18.70
2019-04-04T05:16:08.968Z,19.48
2019-04-04T05:21:24.145Z,18.50
2019-04-04T05:26:15.170Z,19.02
2019-04-04T05:31:18.258Z,20.15
2019-04-04T05:36:20.901Z,20.25
2019-04-04T05:41:22.989Z,19.07
2019-04-04T05:46:25.042Z,20.32
2019-04-04T05:51:27.213Z,19.57
2019-04-04T05:56:29.195Z,19.62
2019-04-04T06:01:34.931Z,19.40
2019-04-04T06:06:35.462Z,19.37
2019-04-04T06:11:37.669Z,17.85
2019-04-04T06:16:39.723Z,17.12
2019-04-04T06:21:41.846Z,17.15
2019-04-04T06:26:43.924Z,17.92
2019-04-04T06:31:45.938Z,19.32
2019-04-04T06:36:49.097Z,19.42
2019-04-04T06:41:51.882Z,17.98
2019-04-04T06:46:54.213Z,18.60
2019-04-04T06:51:56.420Z,20.68
2019-04-04T06:56:59.301Z,18.95
2019-04-04T07:02:01.892Z,18.27
2019-04-04T07:07:03.991Z,16.95
2019-04-04T07:12:06.758Z,15.72
2019-04-04T07:17:09.572Z,17.50
2019-04-04T07:22:11.766Z,14.47
2019-04-04T07:27:14.207Z,15.45
2019-04-04T07:32:17.858Z,14.18
2019-04-04T07:37:22.031Z,14.93
2019-04-04T07:42:23.804Z,13.15
2019-04-04T07:47:25.837Z,14.73
2019-04-04T07:52:27.960Z,12.23
2019-04-04T07:57:30.438Z,12.03
2019-04-04T08:02:32.916Z,11.68
2019-04-04T08:07:34.966Z,11.30
2019-04-04T08:12:36.985Z,10.72
2019-04-04T08:17:39.682Z,10.23
2019-04-04T08:22:41.727Z,10.48
2019-04-04T08:27:43.837Z,9.15
2019-04-04T08:32:45.983Z,10.58
2019-04-04T08:37:48.117Z,10.23
2019-04-04T08:42:50.675Z,9.95
2019-04-04T08:47:52.718Z,9.60
2019-04-04T08:52:54.831Z,9.95
2019-04-04T08:57:56.860Z,9.65
2019-04-04T09:02:59.010Z,10.93
2019-04-04T09:08:01.072Z,9.05
2019-04-04T09:13:03.160Z,9.03
2019-04-04T09:18:05.579Z,8.50
2019-04-04T09:23:07.589Z,8.25
2019-04-04T09:28:09.681Z,8.43
2019-04-04T09:33:11.763Z,7.67
2019-04-04T09:38:13.801Z,8.03
2019-04-04T09:43:15.876Z,8.23
2019-04-04T09:48:17.957Z,8.58
2019-04-04T09:53:20.151Z,8.43
2019-04-04T09:58:22.535Z,7.47
2019-04-04T10:03:24.614Z,7.90
2019-04-04T10:08:26.609Z,7.45
2019-04-04T10:13:28.670Z,7.28
2019-04-04T10:18:30.744Z,6.58
2019-04-04T10:23:32.799Z,5.80
2019-04-04T10:28:34.944Z,6.28
2019-04-04T10:33:37.028Z,6.72
2019-04-04T10:38:39.152Z,5.70
2019-04-04T10:43:41.157Z,5.50
2019-04-04T10:48:43.229Z,5.87
2019-04-04T10:53:45.327Z,5.67
2019-04-04T10:58:47.422Z,5.45
2019-04-04T11:03:49.497Z,4.97
2019-04-04T11:08:51.648Z,5.25
2019-04-04T11:13:53.684Z,5.00
2019-04-04T11:18:55.758Z,5.83
2019-04-04T11:23:57.899Z,5.03
2019-04-04T11:29:00.005Z,5.28
2019-04-04T11:34:02.113Z,5.47
2019-04-04T11:39:05.942Z,5.03
2019-04-04T11:44:08.040Z,5.08
2019-04-04T11:49:10.133Z,5.35
2019-04-04T11:54:12.287Z,5.35
2019-04-04T11:59:14.361Z,5.37
2019-04-04T12:04:16.383Z,5.87
2019-04-04T12:09:18.777Z,6.08
2019-04-04T12:14:20.892Z,6.05
2019-04-04T12:19:22.942Z,5.17
2019-04-04T12:24:25.047Z,5.30
2019-04-04T12:29:27.157Z,5.55
2019-04-04T12:34:29.214Z,5.00
2019-04-04T12:39:31.247Z,5.47
2019-04-04T12:44:33.325Z,4.83
2019-04-04T12:49:35.411Z,5.00
2019-04-04T12:54:37.493Z,4.97
2019-04-04T12:59:39.617Z,4.55
2019-04-04T13:04:41.606Z,4.70
2019-04-04T13:09:43.818Z,4.92
2019-04-04T13:14:45.887Z,4.75
2019-04-04T13:19:48.302Z,5.12
2019-04-04T13:24:50.374Z,6.17
2019-04-04T13:29:52.417Z,5.20
2019-04-04T13:34:59.409Z,5.05
2019-04-04T13:39:58.387Z,4.87
2019-04-04T13:45:00.441Z,5.15
2019-04-04T13:50:03.073Z,5.10
2019-04-04T13:55:05.450Z,5.00
2019-04-04T14:00:10.432Z,5.00
2019-04-04T14:05:14.427Z,4.92
2019-04-04T14:10:18.010Z,5.15
2019-04-04T14:15:20.406Z,4.58
2019-04-04T14:20:22.416Z,5.40
2019-04-04T14:25:24.447Z,4.60
2019-04-04T14:30:26.457Z,4.08
2019-04-04T14:35:28.489Z,5.25
2019-04-04T14:40:30.557Z,4.60
2019-04-04T14:45:32.626Z,4.45
2019-04-04T14:50:34.714Z,3.65
2019-04-04T14:55:36.829Z,3.62
2019-04-04T15:00:38.921Z,4.12
2019-04-04T15:05:41.009Z,3.60
2019-04-04T15:10:43.012Z,3.58
2019-04-04T15:16:10.110Z,3.62
2019-04-04T15:21:12.961Z,3.30
2019-04-04T15:26:15.055Z,3.58
2019-04-04T15:31:17.104Z,3.70
2019-04-04T15:36:19.526Z,3.30
2019-04-04T15:41:21.551Z,3.98
2019-04-04T15:46:23.680Z,4.80
2019-04-04T15:51:25.753Z,4.62
2019-04-04T15:56:27.848Z,7.35
2019-04-04T16:01:29.883Z,4.40
2019-04-04T16:06:31.904Z,4.60
2019-04-04T16:11:33.953Z,4.53
2019-04-04T16:16:36.004Z,4.28
2019-04-04T16:21:38.083Z,4.45
2019-04-04T16:26:40.147Z,4.28
2019-04-04T16:31:42.211Z,4.33
2019-04-04T16:36:44.243Z,4.67
2019-04-04T16:41:46.246Z,4.05
2019-04-04T16:46:48.858Z,4.00
2019-04-04T16:51:50.914Z,4.45
2019-04-04T16:56:52.976Z,4.20
2019-04-04T17:01:55.039Z,4.33
2019-04-04T17:06:57.135Z,4.67
2019-04-04T17:11:59.183Z,4.22
2019-04-04T17:17:01.259Z,4.00
2019-04-04T17:22:03.274Z,3.98
2019-04-04T17:27:05.279Z,4.70
2019-04-04T17:32:08.682Z,4.60
2019-04-04T17:37:10.826Z,4.40
2019-04-04T17:42:12.919Z,4.60
2019-04-04T17:47:14.964Z,4.72
2019-04-04T17:52:17.268Z,4.90
2019-04-04T17:57:19.403Z,4.17
2019-04-04T18:02:21.407Z,5.60
2019-04-04T18:07:23.660Z,6.35
2019-04-04T18:12:25.744Z,6.65
2019-04-04T18:17:27.766Z,6.30
2019-04-04T18:22:29.817Z,4.80
2019-04-04T18:27:31.921Z,4.90
2019-04-04T18:32:33.978Z,4.70
2019-04-04T18:37:36.134Z,4.67
2019-04-04T18:42:38.254Z,4.50
2019-04-04T18:47:40.423Z,4.22
2019-04-04T18:52:42.566Z,4.85
2019-04-04T18:57:44.642Z,5.00
2019-04-04T19:02:46.768Z,5.05
2019-04-04T19:07:48.855Z,4.90
2019-04-04T19:12:50.879Z,5.05
2019-04-04T19:17:52.974Z,5.12
2019-04-04T19:22:55.065Z,5.62
2019-04-04T19:27:57.166Z,5.47
2019-04-04T19:32:59.417Z,5.45
2019-04-04T19:38:01.513Z,5.83
2019-04-04T19:43:03.599Z,6.30
2019-04-04T19:48:05.680Z,5.75
2019-04-04T19:53:07.763Z,6.62
2019-04-04T19:58:09.896Z,6.45
2019-04-04T20:03:12.207Z,6.97
2019-04-04T20:08:14.249Z,6.20
2019-04-04T20:13:16.360Z,6.90
2019-04-04T20:18:18.453Z,6.45
2019-04-04T20:23:20.538Z,6.97
2019-04-04T20:28:22.616Z,7.65
2019-04-04T20:33:24.965Z,8.15
2019-04-04T20:38:27.070Z,7.62
2019-04-04T20:43:29.276Z,7.20
2019-04-04T20:48:31.324Z,8.08
2019-04-04T20:53:33.368Z,7.58
2019-04-04T20:58:35.483Z,7.22
2019-04-04T21:03:37.544Z,9.85
2019-04-04T21:08:39.617Z,7.17
2019-04-04T21:13:41.940Z,7.83
2019-04-04T21:18:44.049Z,7.47
2019-04-04T21:23:46.150Z,7.87
2019-04-04T21:28:48.215Z,7.50
2019-04-04T21:33:50.266Z,7.45
2019-04-04T21:38:52.331Z,7.08
2019-04-04T21:43:54.387Z,7.55
2019-04-04T21:48:56.462Z,7.60
2019-04-04T21:53:58.498Z,6.83
2019-04-04T21:59:00.724Z,6.15
2019-04-04T22:04:02.808Z,7.12
2019-04-04T22:09:08.154Z,5.97
2019-04-04T22:14:21.036Z,6.25
2019-04-04T22:19:14.161Z,5.28
2019-04-04T22:24:16.246Z,5.15
2019-04-04T22:29:18.240Z,5.17
2019-04-04T22:34:20.309Z,5.17
2019-04-04T22:39:22.358Z,5.92
2019-04-04T22:44:34.214Z,4.78
2019-04-04T22:49:28.508Z,5.15
2019-04-04T22:54:30.536Z,4.15
2019-04-04T22:59:32.605Z,4.45
2019-04-04T23:04:34.668Z,4.37
2019-04-04T23:09:36.758Z,5.03
2019-04-04T23:14:47.866Z,4.42
2019-04-04T23:19:42.787Z,5.08
2019-04-04T23:24:44.872Z,4.50
2019-04-04T23:29:46.941Z,4.55
2019-04-04T23:34:49.028Z,4.33
2019-04-04T23:39:51.133Z,4.20
2019-04-04T23:45:00.772Z,4.35
2019-04-04T23:49:57.276Z,6.65
2019-04-04T23:54:59.414Z,7.12
